sensor_id;sensor_type;location;lat;lon;timestamp;P1;durP1;ratioP1;P2;durP2;ratioP2
41099;SDS011;26844;53.686;-6.346;2023-02-10T00:01:34;60.90;;;57.75;;
41099;SDS011;26844;53.686;-6.346;2023-02-10T00:04:00;53.58;;;50.60;;
41099;SDS011;26844;53.686;-6.346;2023-02-10T00:06:25;63.60;;;60.13;;
41099;SDS011;26844;53.686;-6.346;2023-02-10T00:08:53;74.78;;;70.82;;
41099;SDS011;26844;53.686;-6.346;2023-02-10T00:11:18;78.43;;;74.50;;
41099;SDS011;26844;53.686;-6.346;2023-02-10T00:13:44;86.45;;;82.20;;
41099;SDS011;26844;53.686;-6.346;2023-02-10T00:16:11;88.57;;;84.13;;
41099;SDS011;26844;53.686;-6.346;2023-02-10T00:18:36;91.43;;;86.80;;
41099;SDS011;26844;53.686;-6.346;2023-02-10T00:21:35;62.85;;;59.17;;
41099;SDS011;26844;53.686;-6.346;2023-02-10T00:23:53;66.65;;;63.08;;
41099;SDS011;26844;53.686;-6.346;2023-02-10T00:26:18;80.38;;;75.85;;
41099;SDS011;26844;53.686;-6.346;2023-02-10T00:28:43;78.05;;;73.40;;
41099;SDS011;26844;53.686;-6.346;2023-02-10T00:31:09;75.10;;;70.97;;
41099;SDS011;26844;53.686;-6.346;2023-02-10T00:33:35;58.92;;;55.22;;
41099;SDS011;26844;53.686;-6.346;2023-02-10T00:36:10;73.32;;;69.57;;
41099;SDS011;26844;53.686;-6.346;2023-02-10T00:38:35;80.43;;;75.80;;
41099;SDS011;26844;53.686;-6.346;2023-02-10T00:43:33;89.50;;;85.10;;
41099;SDS011;26844;53.686;-6.346;2023-02-10T00:45:59;73.25;;;69.65;;
41099;SDS011;26844;53.686;-6.346;2023-02-10T00:48:24;100.75;;;96.10;;
41099;SDS011;26844;53.686;-6.346;2023-02-10T00:50:49;86.80;;;82.68;;
41099;SDS011;26844;53.686;-6.346;2023-02-10T00:53:15;71.95;;;68.25;;
41099;SDS011;26844;53.686;-6.346;2023-02-10T00:55:40;72.63;;;69.07;;
41099;SDS011;26844;53.686;-6.346;2023-02-10T00:58:05;78.60;;;74.70;;
41099;SDS011;26844;53.686;-6.346;2023-02-10T01:00:30;71.18;;;66.68;;
41099;SDS011;26844;53.686;-6.346;2023-02-10T01:02:56;55.55;;;52.63;;
41099;SDS011;26844;53.686;-6.346;2023-02-10T01:05:21;99.40;;;93.93;;
41099;SDS011;26844;53.686;-6.346;2023-02-10T01:07:46;98.40;;;93.00;;
41099;SDS011;26844;53.686;-6.346;2023-02-10T01:10:11;69.90;;;65.78;;
41099;SDS011;26844;53.686;-6.346;2023-02-10T01:12:37;88.45;;;83.38;;
41099;SDS011;26844;53.686;-6.346;2023-02-10T01:15:02;52.78;;;49.38;;
41099;SDS011;26844;53.686;-6.346;2023-02-10T01:17:28;97.93;;;92.78;;
41099;SDS011;26844;53.686;-6.346;2023-02-10T01:19:54;86.00;;;81.10;;
41099;SDS011;26844;53.686;-6.346;2023-02-10T01:22:19;98.00;;;92.22;;
41099;SDS011;26844;53.686;-6.346;2023-02-10T01:24:44;97.65;;;92.38;;
41099;SDS011;26844;53.686;-6.346;2023-02-10T01:27:09;78.70;;;74.50;;
41099;SDS011;26844;53.686;-6.346;2023-02-10T01:29:35;121.97;;;115.63;;
41099;SDS011;26844;53.686;-6.346;2023-02-10T01:32:00;85.43;;;80.55;;
41099;SDS011;26844;53.686;-6.346;2023-02-10T01:34:25;72.60;;;68.55;;
41099;SDS011;26844;53.686;-6.346;2023-02-10T01:36:51;78.45;;;74.13;;
41099;SDS011;26844;53.686;-6.346;2023-02-10T01:39:16;68.13;;;63.75;;
41099;SDS011;26844;53.686;-6.346;2023-02-10T01:41:43;56.97;;;53.40;;
41099;SDS011;26844;53.686;-6.346;2023-02-10T01:46:46;75.30;;;71.35;;
41099;SDS011;26844;53.686;-6.346;2023-02-10T01:49:12;63.03;;;59.40;;
41099;SDS011;26844;53.686;-6.346;2023-02-10T01:51:44;65.38;;;62.33;;
41099;SDS011;26844;53.686;-6.346;2023-02-10T01:54:12;82.90;;;78.75;;
41099;SDS011;26844;53.686;-6.346;2023-02-10T01:56:38;88.50;;;84.13;;
41099;SDS011;26844;53.686;-6.346;2023-02-10T01:59:03;81.13;;;76.55;;
41099;SDS011;26844;53.686;-6.346;2023-02-10T02:01:28;57.08;;;53.80;;
41099;SDS011;26844;53.686;-6.346;2023-02-10T02:03:54;62.80;;;59.22;;
41099;SDS011;26844;53.686;-6.346;2023-02-10T02:06:19;87.40;;;82.90;;
41099;SDS011;26844;53.686;-6.346;2023-02-10T02:08:44;85.75;;;81.40;;
41099;SDS011;26844;53.686;-6.346;2023-02-10T02:18:59;68.45;;;64.50;;
41099;SDS011;26844;53.686;-6.346;2023-02-10T02:31:41;93.03;;;87.88;;
41099;SDS011;26844;53.686;-6.346;2023-02-10T02:36:38;106.22;;;100.28;;
41099;SDS011;26844;53.686;-6.346;2023-02-10T02:39:05;101.28;;;95.88;;
41099;SDS011;26844;53.686;-6.346;2023-02-10T02:41:31;120.80;;;114.60;;
41099;SDS011;26844;53.686;-6.346;2023-02-10T02:43:56;51.67;;;48.60;;
41099;SDS011;26844;53.686;-6.346;2023-02-10T02:52:04;69.25;;;65.47;;
41099;SDS011;26844;53.686;-6.346;2023-02-10T02:54:46;78.20;;;73.95;;
41099;SDS011;26844;53.686;-6.346;2023-02-10T03:02:04;79.15;;;74.70;;
41099;SDS011;26844;53.686;-6.346;2023-02-10T03:04:31;49.95;;;47.38;;
41099;SDS011;26844;53.686;-6.346;2023-02-10T03:06:58;59.70;;;56.38;;
41099;SDS011;26844;53.686;-6.346;2023-02-10T03:09:23;59.35;;;55.75;;
41099;SDS011;26844;53.686;-6.346;2023-02-10T03:11:49;52.65;;;49.65;;
41099;SDS011;26844;53.686;-6.346;2023-02-10T03:14:14;45.78;;;42.55;;
41099;SDS011;26844;53.686;-6.346;2023-02-10T03:16:39;36.70;;;34.53;;
41099;SDS011;26844;53.686;-6.346;2023-02-10T03:19:05;41.63;;;39.40;;
41099;SDS011;26844;53.686;-6.346;2023-02-10T03:21:30;49.05;;;46.20;;
41099;SDS011;26844;53.686;-6.346;2023-02-10T03:23:55;58.40;;;55.42;;
41099;SDS011;26844;53.686;-6.346;2023-02-10T03:26:20;63.83;;;60.53;;
41099;SDS011;26844;53.686;-6.346;2023-02-10T03:28:46;67.03;;;63.80;;
41099;SDS011;26844;53.686;-6.346;2023-02-10T03:31:11;70.57;;;66.57;;
41099;SDS011;26844;53.686;-6.346;2023-02-10T03:33:36;58.92;;;55.75;;
41099;SDS011;26844;53.686;-6.346;2023-02-10T03:36:02;93.35;;;88.32;;
41099;SDS011;26844;53.686;-6.346;2023-02-10T03:38:27;73.72;;;69.63;;
41099;SDS011;26844;53.686;-6.346;2023-02-10T03:40:53;84.13;;;79.30;;
41099;SDS011;26844;53.686;-6.346;2023-02-10T03:43:18;97.82;;;93.00;;
41099;SDS011;26844;53.686;-6.346;2023-02-10T03:45:44;79.85;;;75.82;;
41099;SDS011;26844;53.686;-6.346;2023-02-10T03:48:09;94.43;;;89.70;;
41099;SDS011;26844;53.686;-6.346;2023-02-10T03:50:35;64.20;;;60.78;;
41099;SDS011;26844;53.686;-6.346;2023-02-10T03:53:01;79.93;;;75.80;;
41099;SDS011;26844;53.686;-6.346;2023-02-10T03:55:26;78.85;;;74.72;;
41099;SDS011;26844;53.686;-6.346;2023-02-10T03:57:51;97.22;;;92.25;;
41099;SDS011;26844;53.686;-6.346;2023-02-10T04:00:17;90.03;;;85.32;;
41099;SDS011;26844;53.686;-6.346;2023-02-10T04:02:42;104.18;;;99.03;;
41099;SDS011;26844;53.686;-6.346;2023-02-10T04:05:07;95.32;;;90.53;;
41099;SDS011;26844;53.686;-6.346;2023-02-10T04:07:33;112.25;;;106.75;;
41099;SDS011;26844;53.686;-6.346;2023-02-10T04:09:58;91.78;;;87.20;;
41099;SDS011;26844;53.686;-6.346;2023-02-10T04:12:23;88.78;;;84.03;;
41099;SDS011;26844;53.686;-6.346;2023-02-10T04:14:48;77.05;;;73.32;;
41099;SDS011;26844;53.686;-6.346;2023-02-10T04:17:13;62.17;;;58.53;;
41099;SDS011;26844;53.686;-6.346;2023-02-10T04:19:39;85.53;;;81.45;;
41099;SDS011;26844;53.686;-6.346;2023-02-10T04:22:04;57.50;;;54.30;;
41099;SDS011;26844;53.686;-6.346;2023-02-10T04:24:29;58.80;;;55.90;;
41099;SDS011;26844;53.686;-6.346;2023-02-10T04:26:54;48.55;;;46.03;;
41099;SDS011;26844;53.686;-6.346;2023-02-10T04:29:21;49.72;;;47.15;;
41099;SDS011;26844;53.686;-6.346;2023-02-10T04:31:47;50.28;;;47.78;;
41099;SDS011;26844;53.686;-6.346;2023-02-10T04:34:12;62.90;;;59.42;;
41099;SDS011;26844;53.686;-6.346;2023-02-10T04:36:37;54.38;;;51.55;;
41099;SDS011;26844;53.686;-6.346;2023-02-10T04:39:02;56.40;;;53.65;;
41099;SDS011;26844;53.686;-6.346;2023-02-10T04:41:28;51.92;;;49.20;;
41099;SDS011;26844;53.686;-6.346;2023-02-10T04:43:53;51.35;;;48.83;;
41099;SDS011;26844;53.686;-6.346;2023-02-10T04:46:18;50.70;;;47.80;;
41099;SDS011;26844;53.686;-6.346;2023-02-10T04:48:43;51.90;;;49.40;;
41099;SDS011;26844;53.686;-6.346;2023-02-10T04:51:09;50.15;;;47.58;;
41099;SDS011;26844;53.686;-6.346;2023-02-10T04:53:36;47.33;;;44.72;;
41099;SDS011;26844;53.686;-6.346;2023-02-10T04:56:01;44.90;;;42.40;;
41099;SDS011;26844;53.686;-6.346;2023-02-10T04:58:28;35.85;;;34.08;;
41099;SDS011;26844;53.686;-6.346;2023-02-10T05:00:54;42.35;;;40.15;;
41099;SDS011;26844;53.686;-6.346;2023-02-10T05:03:19;27.88;;;26.00;;
41099;SDS011;26844;53.686;-6.346;2023-02-10T05:05:44;52.15;;;49.70;;
41099;SDS011;26844;53.686;-6.346;2023-02-10T05:08:10;33.17;;;31.70;;
41099;SDS011;26844;53.686;-6.346;2023-02-10T05:10:35;34.13;;;32.53;;
41099;SDS011;26844;53.686;-6.346;2023-02-10T05:13:01;32.22;;;30.73;;
41099;SDS011;26844;53.686;-6.346;2023-02-10T05:15:26;38.28;;;36.20;;
41099;SDS011;26844;53.686;-6.346;2023-02-10T05:17:51;50.92;;;48.30;;
41099;SDS011;26844;53.686;-6.346;2023-02-10T05:20:16;43.63;;;41.30;;
41099;SDS011;26844;53.686;-6.346;2023-02-10T05:22:42;47.50;;;44.92;;
41099;SDS011;26844;53.686;-6.346;2023-02-10T05:25:07;41.60;;;39.60;;
41099;SDS011;26844;53.686;-6.346;2023-02-10T05:27:33;41.85;;;39.75;;
41099;SDS011;26844;53.686;-6.346;2023-02-10T05:29:58;35.72;;;33.92;;
41099;SDS011;26844;53.686;-6.346;2023-02-10T05:32:23;25.95;;;24.30;;
41099;SDS011;26844;53.686;-6.346;2023-02-10T05:34:50;31.30;;;29.35;;
41099;SDS011;26844;53.686;-6.346;2023-02-10T05:37:15;35.60;;;33.90;;
41099;SDS011;26844;53.686;-6.346;2023-02-10T05:39:40;41.05;;;38.92;;
41099;SDS011;26844;53.686;-6.346;2023-02-10T05:42:05;43.00;;;40.83;;
41099;SDS011;26844;53.686;-6.346;2023-02-10T05:44:31;27.92;;;26.23;;
41099;SDS011;26844;53.686;-6.346;2023-02-10T05:46:57;21.45;;;20.33;;
41099;SDS011;26844;53.686;-6.346;2023-02-10T05:49:22;22.85;;;21.45;;
41099;SDS011;26844;53.686;-6.346;2023-02-10T05:51:47;25.13;;;23.50;;
41099;SDS011;26844;53.686;-6.346;2023-02-10T05:54:13;23.13;;;21.67;;
41099;SDS011;26844;53.686;-6.346;2023-02-10T05:56:38;22.02;;;20.85;;
41099;SDS011;26844;53.686;-6.346;2023-02-10T05:59:04;24.27;;;22.98;;
41099;SDS011;26844;53.686;-6.346;2023-02-10T06:01:29;31.15;;;29.67;;
41099;SDS011;26844;53.686;-6.346;2023-02-10T06:03:55;29.42;;;28.00;;
41099;SDS011;26844;53.686;-6.346;2023-02-10T06:06:20;30.48;;;28.85;;
41099;SDS011;26844;53.686;-6.346;2023-02-10T06:08:45;25.67;;;24.17;;
41099;SDS011;26844;53.686;-6.346;2023-02-10T06:11:11;29.77;;;28.13;;
41099;SDS011;26844;53.686;-6.346;2023-02-10T06:13:36;26.95;;;25.70;;
41099;SDS011;26844;53.686;-6.346;2023-02-10T06:16:02;17.33;;;16.52;;
41099;SDS011;26844;53.686;-6.346;2023-02-10T06:18:28;23.23;;;21.70;;
41099;SDS011;26844;53.686;-6.346;2023-02-10T06:20:53;19.83;;;18.75;;
41099;SDS011;26844;53.686;-6.346;2023-02-10T06:23:18;23.65;;;22.42;;
41099;SDS011;26844;53.686;-6.346;2023-02-10T06:25:45;21.92;;;20.65;;
41099;SDS011;26844;53.686;-6.346;2023-02-10T06:28:10;21.77;;;20.48;;
41099;SDS011;26844;53.686;-6.346;2023-02-10T06:30:35;29.38;;;28.05;;
41099;SDS011;26844;53.686;-6.346;2023-02-10T06:33:01;26.15;;;24.67;;
41099;SDS011;26844;53.686;-6.346;2023-02-10T06:35:26;32.25;;;30.67;;
41099;SDS011;26844;53.686;-6.346;2023-02-10T06:37:51;28.40;;;26.48;;
41099;SDS011;26844;53.686;-6.346;2023-02-10T06:40:16;17.33;;;16.42;;
41099;SDS011;26844;53.686;-6.346;2023-02-10T06:42:42;17.10;;;16.00;;
41099;SDS011;26844;53.686;-6.346;2023-02-10T06:45:07;15.75;;;14.60;;
41099;SDS011;26844;53.686;-6.346;2023-02-10T06:47:34;23.90;;;22.70;;
41099;SDS011;26844;53.686;-6.346;2023-02-10T06:49:59;15.13;;;14.20;;
41099;SDS011;26844;53.686;-6.346;2023-02-10T06:52:25;22.02;;;20.63;;
41099;SDS011;26844;53.686;-6.346;2023-02-10T06:54:51;22.92;;;21.50;;
41099;SDS011;26844;53.686;-6.346;2023-02-10T06:57:16;35.13;;;33.25;;
41099;SDS011;26844;53.686;-6.346;2023-02-10T06:59:42;24.63;;;23.48;;
41099;SDS011;26844;53.686;-6.346;2023-02-10T07:02:08;27.98;;;26.45;;
41099;SDS011;26844;53.686;-6.346;2023-02-10T07:04:34;52.05;;;48.88;;
41099;SDS011;26844;53.686;-6.346;2023-02-10T07:07:00;39.00;;;37.20;;
41099;SDS011;26844;53.686;-6.346;2023-02-10T07:09:26;44.58;;;42.35;;
41099;SDS011;26844;53.686;-6.346;2023-02-10T07:11:51;64.28;;;61.35;;
41099;SDS011;26844;53.686;-6.346;2023-02-10T07:14:16;64.97;;;61.85;;
41099;SDS011;26844;53.686;-6.346;2023-02-10T07:16:42;63.35;;;60.15;;
41099;SDS011;26844;53.686;-6.346;2023-02-10T07:19:07;89.45;;;85.22;;
41099;SDS011;26844;53.686;-6.346;2023-02-10T07:21:32;64.95;;;61.55;;
41099;SDS011;26844;53.686;-6.346;2023-02-10T07:23:57;50.08;;;47.25;;
41099;SDS011;26844;53.686;-6.346;2023-02-10T07:26:23;54.75;;;51.88;;
41099;SDS011;26844;53.686;-6.346;2023-02-10T07:28:48;56.67;;;53.00;;
41099;SDS011;26844;53.686;-6.346;2023-02-10T07:31:14;37.28;;;34.80;;
41099;SDS011;26844;53.686;-6.346;2023-02-10T07:33:39;45.22;;;42.78;;
41099;SDS011;26844;53.686;-6.346;2023-02-10T07:36:04;50.85;;;47.17;;
41099;SDS011;26844;53.686;-6.346;2023-02-10T07:38:30;111.20;;;102.25;;
41099;SDS011;26844;53.686;-6.346;2023-02-10T07:40:57;95.40;;;89.90;;
41099;SDS011;26844;53.686;-6.346;2023-02-10T07:43:22;94.13;;;88.80;;
41099;SDS011;26844;53.686;-6.346;2023-02-10T07:45:48;75.22;;;70.45;;
41099;SDS011;26844;53.686;-6.346;2023-02-10T07:48:15;63.30;;;59.38;;
41099;SDS011;26844;53.686;-6.346;2023-02-10T07:50:40;58.03;;;54.72;;
41099;SDS011;26844;53.686;-6.346;2023-02-10T07:53:07;75.20;;;70.55;;
41099;SDS011;26844;53.686;-6.346;2023-02-10T07:55:32;70.63;;;66.47;;
41099;SDS011;26844;53.686;-6.346;2023-02-10T07:57:57;85.85;;;81.65;;
41099;SDS011;26844;53.686;-6.346;2023-02-10T08:00:23;101.90;;;96.35;;
41099;SDS011;26844;53.686;-6.346;2023-02-10T08:02:48;101.03;;;95.57;;
41099;SDS011;26844;53.686;-6.346;2023-02-10T08:05:13;101.15;;;96.38;;
41099;SDS011;26844;53.686;-6.346;2023-02-10T08:07:39;99.03;;;93.63;;
41099;SDS011;26844;53.686;-6.346;2023-02-10T08:10:05;114.80;;;108.45;;
41099;SDS011;26844;53.686;-6.346;2023-02-10T08:12:30;106.63;;;99.65;;
41099;SDS011;26844;53.686;-6.346;2023-02-10T08:14:57;76.82;;;72.60;;
41099;SDS011;26844;53.686;-6.346;2023-02-10T08:17:22;60.05;;;56.63;;
41099;SDS011;26844;53.686;-6.346;2023-02-10T08:19:48;56.88;;;53.65;;
41099;SDS011;26844;53.686;-6.346;2023-02-10T08:22:13;87.53;;;82.47;;
41099;SDS011;26844;53.686;-6.346;2023-02-10T08:24:38;76.95;;;72.05;;
41099;SDS011;26844;53.686;-6.346;2023-02-10T08:27:04;74.57;;;70.50;;
41099;SDS011;26844;53.686;-6.346;2023-02-10T08:29:29;136.90;;;130.45;;
41099;SDS011;26844;53.686;-6.346;2023-02-10T08:31:54;136.93;;;130.20;;
41099;SDS011;26844;53.686;-6.346;2023-02-10T08:34:20;106.80;;;100.80;;
41099;SDS011;26844;53.686;-6.346;2023-02-10T08:36:45;60.80;;;57.30;;
41099;SDS011;26844;53.686;-6.346;2023-02-10T08:39:11;63.50;;;60.05;;
41099;SDS011;26844;53.686;-6.346;2023-02-10T08:41:37;66.63;;;63.17;;
41099;SDS011;26844;53.686;-6.346;2023-02-10T08:44:02;64.25;;;60.88;;
41099;SDS011;26844;53.686;-6.346;2023-02-10T08:46:27;82.32;;;77.82;;
41099;SDS011;26844;53.686;-6.346;2023-02-10T08:48:53;72.05;;;68.40;;
41099;SDS011;26844;53.686;-6.346;2023-02-10T08:51:18;67.47;;;63.75;;
41099;SDS011;26844;53.686;-6.346;2023-02-10T08:53:43;76.30;;;72.20;;
41099;SDS011;26844;53.686;-6.346;2023-02-10T08:56:09;87.63;;;83.55;;
41099;SDS011;26844;53.686;-6.346;2023-02-10T08:58:35;77.40;;;73.75;;
41099;SDS011;26844;53.686;-6.346;2023-02-10T09:01:00;81.63;;;77.60;;
41099;SDS011;26844;53.686;-6.346;2023-02-10T09:03:27;78.70;;;75.10;;
41099;SDS011;26844;53.686;-6.346;2023-02-10T09:05:54;73.32;;;69.65;;
41099;SDS011;26844;53.686;-6.346;2023-02-10T09:08:19;74.88;;;70.90;;
41099;SDS011;26844;53.686;-6.346;2023-02-10T09:10:45;59.65;;;56.50;;
41099;SDS011;26844;53.686;-6.346;2023-02-10T09:13:10;100.78;;;95.65;;
41099;SDS011;26844;53.686;-6.346;2023-02-10T09:15:36;103.85;;;98.63;;
41099;SDS011;26844;53.686;-6.346;2023-02-10T09:18:02;90.38;;;85.75;;
41099;SDS011;26844;53.686;-6.346;2023-02-10T09:20:27;115.22;;;109.65;;
41099;SDS011;26844;53.686;-6.346;2023-02-10T09:22:52;93.78;;;88.95;;
41099;SDS011;26844;53.686;-6.346;2023-02-10T09:25:18;78.05;;;74.38;;
41099;SDS011;26844;53.686;-6.346;2023-02-10T09:27:43;89.78;;;85.45;;
41099;SDS011;26844;53.686;-6.346;2023-02-10T09:30:08;94.20;;;88.95;;
41099;SDS011;26844;53.686;-6.346;2023-02-10T09:32:34;90.30;;;85.72;;
41099;SDS011;26844;53.686;-6.346;2023-02-10T09:34:59;94.38;;;89.70;;
41099;SDS011;26844;53.686;-6.346;2023-02-10T09:37:24;107.47;;;102.05;;
41099;SDS011;26844;53.686;-6.346;2023-02-10T09:39:50;107.70;;;102.35;;
41099;SDS011;26844;53.686;-6.346;2023-02-10T09:44:55;115.18;;;109.40;;
41099;SDS011;26844;53.686;-6.346;2023-02-10T09:47:37;84.22;;;80.00;;
41099;SDS011;26844;53.686;-6.346;2023-02-10T09:50:22;124.80;;;118.57;;
41099;SDS011;26844;53.686;-6.346;2023-02-10T09:55:30;102.03;;;96.85;;
41099;SDS011;26844;53.686;-6.346;2023-02-10T09:58:17;77.55;;;73.75;;
41099;SDS011;26844;53.686;-6.346;2023-02-10T10:00:43;185.15;;;175.90;;
41099;SDS011;26844;53.686;-6.346;2023-02-10T10:03:17;63.60;;;60.53;;
41099;SDS011;26844;53.686;-6.346;2023-02-10T10:10:51;78.65;;;74.70;;
41099;SDS011;26844;53.686;-6.346;2023-02-10T10:13:20;91.28;;;86.93;;
41099;SDS011;26844;53.686;-6.346;2023-02-10T10:15:49;152.00;;;144.60;;
41099;SDS011;26844;53.686;-6.346;2023-02-10T10:30:58;158.25;;;149.93;;
41099;SDS011;26844;53.686;-6.346;2023-02-10T10:33:27;268.77;;;253.25;;
41099;SDS011;26844;53.686;-6.346;2023-02-10T10:35:53;205.50;;;195.10;;
41099;SDS011;26844;53.686;-6.346;2023-02-10T10:38:21;466.30;;;430.23;;
41099;SDS011;26844;53.686;-6.346;2023-02-10T10:40:47;265.27;;;249.18;;
41099;SDS011;26844;53.686;-6.346;2023-02-10T10:43:27;245.60;;;233.55;;
41099;SDS011;26844;53.686;-6.346;2023-02-10T10:45:55;368.98;;;346.67;;
41099;SDS011;26844;53.686;-6.346;2023-02-10T10:48:23;390.92;;;364.98;;
41099;SDS011;26844;53.686;-6.346;2023-02-10T10:50:52;360.42;;;334.27;;
41099;SDS011;26844;53.686;-6.346;2023-02-10T10:53:19;179.68;;;170.15;;
41099;SDS011;26844;53.686;-6.346;2023-02-10T10:55:48;206.88;;;194.90;;
41099;SDS011;26844;53.686;-6.346;2023-02-10T10:58:28;190.70;;;180.57;;
41099;SDS011;26844;53.686;-6.346;2023-02-10T11:00:54;115.95;;;109.82;;
41099;SDS011;26844;53.686;-6.346;2023-02-10T11:03:20;183.80;;;174.02;;
41099;SDS011;26844;53.686;-6.346;2023-02-10T11:08:24;82.57;;;78.22;;
41099;SDS011;26844;53.686;-6.346;2023-02-10T11:10:54;112.45;;;106.53;;
41099;SDS011;26844;53.686;-6.346;2023-02-10T11:13:20;137.65;;;131.00;;
41099;SDS011;26844;53.686;-6.346;2023-02-10T11:15:46;201.50;;;191.18;;
41099;SDS011;26844;53.686;-6.346;2023-02-10T11:18:18;154.35;;;146.13;;
41099;SDS011;26844;53.686;-6.346;2023-02-10T11:21:05;165.95;;;158.10;;
41099;SDS011;26844;53.686;-6.346;2023-02-10T11:23:30;72.13;;;68.63;;
41099;SDS011;26844;53.686;-6.346;2023-02-10T11:28:25;97.75;;;92.53;;
41099;SDS011;26844;53.686;-6.346;2023-02-10T11:30:58;158.07;;;149.20;;
41099;SDS011;26844;53.686;-6.346;2023-02-10T11:33:25;57.13;;;54.33;;
41099;SDS011;26844;53.686;-6.346;2023-02-10T11:35:53;72.03;;;68.43;;
41099;SDS011;26844;53.686;-6.346;2023-02-10T11:38:21;98.90;;;93.15;;
41099;SDS011;26844;53.686;-6.346;2023-02-10T11:43:46;91.88;;;86.82;;
41099;SDS011;26844;53.686;-6.346;2023-02-10T11:46:25;218.00;;;203.60;;
41099;SDS011;26844;53.686;-6.346;2023-02-10T11:48:55;154.23;;;145.57;;
41099;SDS011;26844;53.686;-6.346;2023-02-10T11:51:21;198.82;;;184.70;;
41099;SDS011;26844;53.686;-6.346;2023-02-10T11:53:47;146.32;;;138.57;;
41099;SDS011;26844;53.686;-6.346;2023-02-10T12:04:19;206.88;;;195.50;;
41099;SDS011;26844;53.686;-6.346;2023-02-10T12:22:28;188.68;;;178.90;;
41099;SDS011;26844;53.686;-6.346;2023-02-10T12:27:37;224.55;;;211.63;;
41099;SDS011;26844;53.686;-6.346;2023-02-10T12:30:09;253.63;;;236.13;;
41099;SDS011;26844;53.686;-6.346;2023-02-10T12:53:11;147.95;;;139.80;;
41099;SDS011;26844;53.686;-6.346;2023-02-10T12:58:23;293.83;;;275.90;;
41099;SDS011;26844;53.686;-6.346;2023-02-10T13:00:57;382.10;;;350.80;;
41099;SDS011;26844;53.686;-6.346;2023-02-10T13:03:25;194.35;;;181.52;;
41099;SDS011;26844;53.686;-6.346;2023-02-10T13:06:02;62.53;;;59.47;;
41099;SDS011;26844;53.686;-6.346;2023-02-10T13:08:32;212.25;;;198.93;;
41099;SDS011;26844;53.686;-6.346;2023-02-10T13:10:59;98.70;;;93.32;;
41099;SDS011;26844;53.686;-6.346;2023-02-10T13:13:29;255.43;;;235.43;;
41099;SDS011;26844;53.686;-6.346;2023-02-10T13:15:59;234.48;;;216.65;;
41099;SDS011;26844;53.686;-6.346;2023-02-10T13:18:26;43.80;;;41.40;;
41099;SDS011;26844;53.686;-6.346;2023-02-10T13:21:13;126.93;;;118.93;;
41099;SDS011;26844;53.686;-6.346;2023-02-10T13:33:35;167.73;;;155.50;;
41099;SDS011;26844;53.686;-6.346;2023-02-10T13:36:02;98.20;;;93.25;;
41099;SDS011;26844;53.686;-6.346;2023-02-10T13:38:31;147.98;;;140.93;;
41099;SDS011;26844;53.686;-6.346;2023-02-10T13:40:58;310.23;;;285.67;;
41099;SDS011;26844;53.686;-6.346;2023-02-10T13:43:43;236.35;;;218.70;;
41099;SDS011;26844;53.686;-6.346;2023-02-10T13:46:28;104.13;;;99.20;;
41099;SDS011;26844;53.686;-6.346;2023-02-10T13:48:56;199.80;;;186.38;;
41099;SDS011;26844;53.686;-6.346;2023-02-10T13:51:29;240.90;;;224.53;;
41099;SDS011;26844;53.686;-6.346;2023-02-10T13:53:55;140.13;;;132.88;;
41099;SDS011;26844;53.686;-6.346;2023-02-10T13:58:57;259.52;;;240.35;;
41099;SDS011;26844;53.686;-6.346;2023-02-10T14:04:25;276.90;;;257.30;;
41099;SDS011;26844;53.686;-6.346;2023-02-10T14:06:52;116.10;;;110.60;;
41099;SDS011;26844;53.686;-6.346;2023-02-10T14:09:20;118.05;;;112.32;;
41099;SDS011;26844;53.686;-6.346;2023-02-10T14:11:45;186.82;;;175.05;;
41099;SDS011;26844;53.686;-6.346;2023-02-10T14:14:18;101.50;;;96.07;;
41099;SDS011;26844;53.686;-6.346;2023-02-10T14:16:44;113.88;;;107.82;;
41099;SDS011;26844;53.686;-6.346;2023-02-10T14:19:21;92.60;;;88.05;;
41099;SDS011;26844;53.686;-6.346;2023-02-10T14:21:47;152.80;;;144.50;;
41099;SDS011;26844;53.686;-6.346;2023-02-10T14:24:14;97.03;;;92.53;;
41099;SDS011;26844;53.686;-6.346;2023-02-10T14:26:41;98.55;;;93.32;;
41099;SDS011;26844;53.686;-6.346;2023-02-10T14:29:09;112.00;;;106.47;;
41099;SDS011;26844;53.686;-6.346;2023-02-10T14:34:16;198.52;;;186.55;;
41099;SDS011;26844;53.686;-6.346;2023-02-10T14:39:23;221.57;;;207.85;;
41099;SDS011;26844;53.686;-6.346;2023-02-10T14:41:50;321.23;;;298.52;;
41099;SDS011;26844;53.686;-6.346;2023-02-10T14:44:23;294.55;;;275.90;;
41099;SDS011;26844;53.686;-6.346;2023-02-10T14:46:50;581.55;;;529.72;;
41099;SDS011;26844;53.686;-6.346;2023-02-10T14:49:15;220.70;;;210.27;;
41099;SDS011;26844;53.686;-6.346;2023-02-10T14:56:53;165.60;;;157.80;;
41099;SDS011;26844;53.686;-6.346;2023-02-10T14:59:20;293.45;;;273.40;;
41099;SDS011;26844;53.686;-6.346;2023-02-10T15:01:45;124.43;;;118.77;;
41099;SDS011;26844;53.686;-6.346;2023-02-10T15:04:13;186.70;;;175.32;;
41099;SDS011;26844;53.686;-6.346;2023-02-10T15:06:39;382.77;;;351.27;;
41099;SDS011;26844;53.686;-6.346;2023-02-10T15:09:18;147.07;;;138.70;;
41099;SDS011;26844;53.686;-6.346;2023-02-10T15:11:54;140.65;;;133.82;;
41099;SDS011;26844;53.686;-6.346;2023-02-10T15:17:07;130.88;;;124.45;;
41099;SDS011;26844;53.686;-6.346;2023-02-10T15:19:34;109.88;;;104.25;;
41099;SDS011;26844;53.686;-6.346;2023-02-10T15:21:59;174.75;;;164.48;;
41099;SDS011;26844;53.686;-6.346;2023-02-10T15:26:50;119.68;;;113.78;;
41099;SDS011;26844;53.686;-6.346;2023-02-10T15:29:16;108.88;;;103.78;;
41099;SDS011;26844;53.686;-6.346;2023-02-10T15:31:42;119.97;;;114.32;;
41099;SDS011;26844;53.686;-6.346;2023-02-10T15:34:15;157.50;;;149.23;;
41099;SDS011;26844;53.686;-6.346;2023-02-10T15:36:46;142.60;;;135.23;;
41099;SDS011;26844;53.686;-6.346;2023-02-10T15:39:20;99.63;;;95.32;;
41099;SDS011;26844;53.686;-6.346;2023-02-10T15:46:42;133.23;;;126.85;;
41099;SDS011;26844;53.686;-6.346;2023-02-10T15:49:11;124.88;;;119.20;;
41099;SDS011;26844;53.686;-6.346;2023-02-10T15:51:41;166.18;;;157.05;;
41099;SDS011;26844;53.686;-6.346;2023-02-10T15:54:08;80.03;;;76.50;;
41099;SDS011;26844;53.686;-6.346;2023-02-10T15:56:36;140.05;;;132.40;;
41099;SDS011;26844;53.686;-6.346;2023-02-10T15:59:01;120.63;;;114.65;;
41099;SDS011;26844;53.686;-6.346;2023-02-10T16:01:29;171.93;;;162.07;;
41099;SDS011;26844;53.686;-6.346;2023-02-10T16:03:57;103.53;;;98.28;;
41099;SDS011;26844;53.686;-6.346;2023-02-10T16:06:22;114.30;;;107.80;;
41099;SDS011;26844;53.686;-6.346;2023-02-10T16:08:47;103.53;;;98.93;;
41099;SDS011;26844;53.686;-6.346;2023-02-10T16:11:13;113.82;;;108.90;;
41099;SDS011;26844;53.686;-6.346;2023-02-10T16:13:38;314.42;;;291.50;;
41099;SDS011;26844;53.686;-6.346;2023-02-10T16:16:04;155.93;;;148.30;;
41099;SDS011;26844;53.686;-6.346;2023-02-10T16:18:30;176.52;;;167.60;;
41099;SDS011;26844;53.686;-6.346;2023-02-10T16:20:55;184.73;;;174.70;;
41099;SDS011;26844;53.686;-6.346;2023-02-10T16:23:22;139.82;;;133.02;;
41099;SDS011;26844;53.686;-6.346;2023-02-10T16:25:47;158.43;;;149.93;;
41099;SDS011;26844;53.686;-6.346;2023-02-10T16:28:16;133.02;;;126.75;;
41099;SDS011;26844;53.686;-6.346;2023-02-10T16:30:42;215.50;;;203.00;;
41099;SDS011;26844;53.686;-6.346;2023-02-10T16:33:08;110.72;;;105.68;;